createdAt,value
2022-08-07T00:02:44.746Z,95851
2022-08-07T00:06:09.768Z,95846
2022-08-07T00:09:35.733Z,95845
2022-08-07T00:13:01.979Z,95853
2022-08-07T00:16:27.874Z,95845
2022-08-07T00:19:59.754Z,95835
2022-08-07T00:23:17.019Z,95834
2022-08-07T00:26:48.969Z,95831
2022-08-07T00:30:07.287Z,95829
2022-08-07T00:33:32.981Z,95823
2022-08-07T00:36:57.993Z,95821
2022-08-07T00:40:36.027Z,95821
2022-08-07T00:44:00.099Z,95822
2022-08-07T00:47:15.741Z,95817
2022-08-07T00:50:46.414Z,95809
2022-08-07T00:54:04.919Z,95810
2022-08-07T00:57:30.401Z,95807
2022-08-07T01:00:55.610Z,95806
2022-08-07T01:04:21.666Z,95806
2022-08-07T01:07:46.375Z,95805
2022-08-07T01:11:23.684Z,95800
2022-08-07T01:14:37.287Z,95802
2022-08-07T01:18:02.381Z,95804
2022-08-07T01:21:28.435Z,95809
2022-08-07T01:24:53.118Z,95804
2022-08-07T01:28:18.504Z,95808
2022-08-07T01:31:48.379Z,95807
2022-08-07T01:35:09.221Z,95804
2022-08-07T01:38:34.599Z,95803
2022-08-07T01:42:07.779Z,95810
2022-08-07T01:45:33.158Z,95813
2022-08-07T01:48:50.661Z,95813
2022-08-07T01:52:15.999Z,95809
2022-08-07T01:55:41.324Z,95805
2022-08-07T01:59:06.701Z,95809
2022-08-07T02:02:32.453Z,95815
2022-08-07T02:05:59.549Z,95816
2022-08-07T02:09:37.459Z,95820
2022-08-07T02:12:50.138Z,95814
2022-08-07T02:16:13.452Z,95809
2022-08-07T02:20:06.007Z,95813
2022-08-07T02:23:04.120Z,95811
2022-08-07T02:26:32.183Z,95815
2022-08-07T02:29:55.130Z,95805
2022-08-07T02:33:20.066Z,95804
2022-08-07T02:36:45.940Z,95807
2022-08-07T02:40:12.272Z,95796
2022-08-07T02:43:36.031Z,95795
2022-08-07T02:47:01.343Z,95790
2022-08-07T02:50:26.648Z,95791
2022-08-07T02:53:52.015Z,95790
2022-08-07T02:57:17.359Z,95795
2022-08-07T03:00:46.959Z,95793
2022-08-07T03:04:12.725Z,95788
2022-08-07T03:07:43.424Z,95781
2022-08-07T03:10:58.645Z,95776
2022-08-07T03:14:23.965Z,95779
2022-08-07T03:17:53.191Z,95777
2022-08-07T03:21:16.053Z,95774
2022-08-07T03:24:39.988Z,95778
2022-08-07T03:28:09.333Z,95780
2022-08-07T03:31:42.253Z,95773
2022-08-07T03:35:01.236Z,95771
2022-08-07T03:38:29.499Z,95775
2022-08-07T03:41:47.436Z,95768
2022-08-07T03:45:11.852Z,95772
2022-08-07T03:48:45.227Z,95771
2022-08-07T03:52:02.516Z,95769
2022-08-07T03:55:42.834Z,95763
2022-08-07T03:59:07.559Z,95769
2022-08-07T04:02:18.455Z,95766
2022-08-07T04:05:45.484Z,95772
2022-08-07T04:09:15.569Z,95770
2022-08-07T04:12:35.220Z,95775
2022-08-07T04:15:59.779Z,95777
2022-08-07T04:19:25.113Z,95778
2022-08-07T04:22:53.285Z,95774
2022-08-07T04:26:16.870Z,95781
2022-08-07T04:29:58.691Z,95781
2022-08-07T04:33:07.187Z,95781
2022-08-07T04:36:31.705Z,95782
2022-08-07T04:39:57.089Z,95780
2022-08-07T04:43:28.409Z,95780
2022-08-07T04:46:59.428Z,95775
2022-08-07T04:50:12.990Z,95778
2022-08-07T04:53:40.362Z,95779
2022-08-07T04:58:08.716Z,95780
2022-08-07T05:00:30.524Z,95786
2022-08-07T05:04:00.707Z,95792
2022-08-07T05:07:20.815Z,95793
2022-08-07T05:10:44.891Z,95795
2022-08-07T05:14:45.842Z,95795
2022-08-07T05:17:50.707Z,95792
2022-08-07T05:21:00.863Z,95788
2022-08-07T05:24:30.333Z,95787
2022-08-07T05:28:02.408Z,95785
2022-08-07T05:31:16.865Z,95786
2022-08-07T05:34:42.146Z,95784
2022-08-07T05:38:08.471Z,95779
2022-08-07T05:42:00.827Z,95783
2022-08-07T05:45:04.572Z,95786
2022-08-07T05:48:25.820Z,95792
2022-08-07T05:51:49.086Z,95786
2022-08-07T05:55:14.372Z,95783
2022-08-07T05:58:39.671Z,95792
2022-08-07T06:02:05.058Z,95791
2022-08-07T06:05:30.259Z,95799
2022-08-07T06:08:55.562Z,95798
2022-08-07T06:12:27.918Z,95799
2022-08-07T06:15:46.322Z,95802
2022-08-07T06:19:17.723Z,95790
2022-08-07T06:22:42.333Z,95790
2022-08-07T06:26:07.550Z,95791
2022-08-07T06:29:38.738Z,95785
2022-08-07T06:33:03.592Z,95787
2022-08-07T06:36:35.113Z,95791
2022-08-07T06:40:14.135Z,95786
2022-08-07T06:43:21.168Z,95787
2022-08-07T06:46:53.148Z,95791
2022-08-07T06:50:11.195Z,95787
2022-08-07T06:53:49.263Z,95783
2022-08-07T06:57:01.805Z,95788
2022-08-07T07:00:27.452Z,95786
2022-08-07T07:03:56.397Z,95786
2022-08-07T07:07:19.118Z,95783
2022-08-07T07:10:47.465Z,95783
2022-08-07T07:14:10.080Z,95785
2022-08-07T07:17:38.742Z,95785
2022-08-07T07:21:00.566Z,95779
2022-08-07T07:24:25.825Z,95780
2022-08-07T07:27:55.942Z,95779
2022-08-07T07:31:17.173Z,95780
2022-08-07T07:34:41.773Z,95777
2022-08-07T07:38:19.790Z,95776
2022-08-07T07:41:50.555Z,95782
2022-08-07T07:45:10.468Z,95778
2022-08-07T07:48:36.474Z,95769
2022-08-07T07:52:01.191Z,95766
2022-08-07T07:55:26.505Z,95767
2022-08-07T07:58:51.814Z,95769
2022-08-07T08:02:22.411Z,95770
2022-08-07T08:05:50.574Z,95764
2022-08-07T08:09:08.094Z,95772
2022-08-07T08:12:51.453Z,95770
2022-08-07T08:16:00.679Z,95765
2022-08-07T08:20:16.485Z,95763
2022-08-07T08:22:54.237Z,95768
2022-08-07T08:26:14.487Z,95765
2022-08-07T08:29:54.103Z,95762
2022-08-07T08:33:05.340Z,95767
2022-08-07T08:36:30.661Z,95760
2022-08-07T08:39:58.537Z,95760
2022-08-07T08:43:21.263Z,95764
2022-08-07T08:46:46.636Z,95760
2022-08-07T08:50:14.120Z,95757
2022-08-07T08:53:37.301Z,95755
2022-08-07T08:57:02.641Z,95766
2022-08-07T09:00:28.700Z,95755
2022-08-07T09:03:55.186Z,95756
2022-08-07T09:07:22.927Z,95750
2022-08-07T09:10:44.100Z,95752
2022-08-07T09:14:09.581Z,95751
2022-08-07T09:17:58.817Z,95745
2022-08-07T09:21:00.892Z,95741
2022-08-07T09:24:30.151Z,95738
2022-08-07T09:27:54.859Z,95734
2022-08-07T09:31:16.023Z,95728
2022-08-07T09:34:41.326Z,95735
2022-08-07T09:38:06.631Z,95731
2022-08-07T09:41:36.126Z,95724
2022-08-07T09:45:39.992Z,95721
2022-08-07T09:48:28.788Z,95726
2022-08-07T09:52:11.218Z,95713
2022-08-07T09:55:17.168Z,95713
2022-08-07T09:58:38.707Z,95708
2022-08-07T10:02:04.066Z,95696
2022-08-07T10:05:58.240Z,95703
2022-08-07T10:08:54.735Z,95700
2022-08-07T10:12:21.644Z,95691
2022-08-07T10:15:45.551Z,95691
2022-08-07T10:19:11.173Z,95688
2022-08-07T10:22:36.659Z,95686
2022-08-07T10:26:01.642Z,95666
2022-08-07T10:29:30.259Z,95677
2022-08-07T10:32:54.112Z,95668
2022-08-07T10:36:17.958Z,95662
2022-08-07T10:39:57.372Z,95658
2022-08-07T10:43:08.641Z,95651
2022-08-07T10:46:34.009Z,95655
2022-08-07T10:49:59.385Z,95644
2022-08-07T10:53:24.696Z,95642
2022-08-07T10:57:06.046Z,95636
2022-08-07T11:00:36.326Z,95634
2022-08-07T11:04:10.447Z,95635
2022-08-07T11:07:34.581Z,95631
2022-08-07T11:10:55.534Z,95625
2022-08-07T11:14:46.652Z,95635
2022-08-07T11:17:42.924Z,95629
2022-08-07T11:21:04.987Z,95619
2022-08-07T11:24:30.446Z,95614
2022-08-07T11:28:01.107Z,95617
2022-08-07T11:31:21.189Z,95608
2022-08-07T11:34:46.374Z,95610
2022-08-07T11:38:12.946Z,95605
2022-08-07T11:42:00.619Z,95605
2022-08-07T11:45:03.399Z,95597
2022-08-07T11:48:29.312Z,95590
2022-08-07T11:51:52.915Z,95593
2022-08-07T11:55:18.742Z,95596
2022-08-07T11:58:49.034Z,95590
2022-08-07T12:02:17.825Z,95584
2022-08-07T12:05:41.548Z,95578
2022-08-07T12:09:03.620Z,95581
2022-08-07T12:12:28.953Z,95580
2022-08-07T12:16:06.371Z,95571
2022-08-07T12:19:21.215Z,95578
2022-08-07T12:22:47.438Z,95575
2022-08-07T12:26:23.687Z,95572
2022-08-07T12:29:40.460Z,95567
2022-08-07T12:33:03.375Z,95567
2022-08-07T12:36:32.843Z,95570
2022-08-07T12:39:54.114Z,95573
2022-08-07T12:44:01.669Z,95568
2022-08-07T12:46:46.080Z,95560
2022-08-07T12:50:33.571Z,95556
2022-08-07T12:54:03.590Z,95552
2022-08-07T12:57:03.517Z,95546
2022-08-07T13:00:31.365Z,95547
2022-08-07T13:03:56.527Z,95547
2022-08-07T13:07:18.063Z,95544
2022-08-07T13:10:51.331Z,95549
2022-08-07T13:14:07.298Z,95546
2022-08-07T13:17:39.718Z,95536
2022-08-07T13:20:57.985Z,95535
2022-08-07T13:24:25.567Z,95534
2022-08-07T13:28:06.370Z,95530
2022-08-07T13:31:14.159Z,95528
2022-08-07T13:34:39.545Z,95525
2022-08-07T13:38:04.944Z,95521
2022-08-07T13:41:30.262Z,95517
2022-08-07T13:45:11.870Z,95519
2022-08-07T13:48:27.982Z,95515
2022-08-07T13:52:04.666Z,95511
2022-08-07T13:55:13.129Z,95508
2022-08-07T13:58:37.221Z,95505
2022-08-07T14:02:04.298Z,95508
2022-08-07T14:05:51.420Z,95502
2022-08-07T14:10:00.993Z,95486
2022-08-07T14:12:55.408Z,95492
2022-08-07T14:16:27.296Z,95489
2022-08-07T14:20:39.547Z,95484
2022-08-07T14:23:31.146Z,95487
2022-08-07T14:26:50.103Z,95491
2022-08-07T15:05:37.491Z,95473
2022-08-07T15:09:02.914Z,95464
2022-08-07T15:12:30.364Z,95470
2022-08-07T15:15:53.639Z,95469
2022-08-07T15:19:18.993Z,95473
2022-08-07T15:26:09.726Z,95466
2022-08-07T15:36:26.228Z,95456
2022-08-07T15:39:56.769Z,95456
2022-08-07T15:46:50.068Z,95451
2022-08-07T15:50:07.252Z,95453
2022-08-07T15:53:42.319Z,95450
2022-08-07T15:56:57.884Z,95455
2022-08-07T16:00:32.287Z,95455
2022-08-07T16:03:54.371Z,95452
2022-08-07T16:07:31.898Z,95449
2022-08-07T16:10:39.157Z,95448
2022-08-07T16:14:04.489Z,95442
2022-08-07T16:18:00.976Z,95445
2022-08-07T16:21:43.861Z,95443
2022-08-07T16:24:33.449Z,95442
2022-08-07T16:27:45.852Z,95437
2022-08-07T16:31:11.227Z,95437
2022-08-07T16:34:36.574Z,95434
2022-08-07T16:38:03.162Z,95437
2022-08-07T16:41:27.398Z,95438
2022-08-07T16:45:14.530Z,95437
2022-08-07T16:48:27.788Z,95441
2022-08-07T16:51:51.978Z,95442
2022-08-07T16:55:13.128Z,95439
2022-08-07T16:58:54.563Z,95441
2022-08-07T17:01:59.663Z,95437
2022-08-07T17:06:02.772Z,95439
2022-08-07T17:09:09.008Z,95439
2022-08-07T17:12:33.655Z,95438
2022-08-07T17:15:44.024Z,95433
2022-08-07T17:19:06.529Z,95435
2022-08-07T17:22:38.193Z,95436
2022-08-07T17:26:23.011Z,95435
2022-08-07T17:30:13.740Z,95430
2022-08-07T17:33:39.458Z,95434
2022-08-07T17:36:31.554Z,95432
2022-08-07T17:39:58.985Z,95440
2022-08-07T17:43:22.214Z,95440
2022-08-07T17:46:52.374Z,95442
2022-08-07T17:50:14.432Z,95441
2022-08-07T17:54:01.843Z,95444
2022-08-07T17:57:03.446Z,95445
2022-08-07T18:00:33.508Z,95449
2022-08-07T18:04:04.778Z,95445
2022-08-07T18:07:23.497Z,95444
2022-08-07T18:11:17.366Z,95448
2022-08-07T18:14:10.119Z,95448
2022-08-07T18:18:08.230Z,95450
2022-08-07T18:21:29.740Z,95456
2022-08-07T18:24:28.549Z,95458
2022-08-07T18:27:51.371Z,95456
2022-08-07T18:31:18.390Z,95462
2022-08-07T18:34:53.170Z,95468
2022-08-07T18:38:54.138Z,95471
2022-08-07T18:41:44.815Z,95471
2022-08-07T18:45:40.694Z,95475
2022-08-07T18:49:23.924Z,95480
2022-08-07T18:52:34.424Z,95486
2022-08-07T18:55:40.116Z,95492
2022-08-07T18:58:39.918Z,95497
2022-08-07T19:02:19.600Z,95499
2022-08-07T19:06:01.708Z,95508
2022-08-07T19:08:56.095Z,95511
2022-08-07T19:12:21.659Z,95511
2022-08-07T19:16:04.033Z,95514
2022-08-07T19:19:13.072Z,95514
2022-08-07T19:22:38.104Z,95516
2022-08-07T19:26:22.564Z,95519
2022-08-07T19:30:59.811Z,95518
2022-08-07T19:32:59.507Z,95525
2022-08-07T19:36:27.574Z,95534
2022-08-07T19:39:57.105Z,95532
2022-08-07T19:43:10.672Z,95534
2022-08-07T19:46:35.427Z,95541
2022-08-07T19:50:03.137Z,95538
2022-08-07T19:54:30.082Z,95537
2022-08-07T19:56:59.770Z,95534
2022-08-07T20:00:21.775Z,95538
2022-08-07T20:03:42.461Z,95543
2022-08-07T20:07:08.992Z,95546
2022-08-07T20:10:34.643Z,95551
2022-08-07T20:13:58.485Z,95554
2022-08-07T20:17:23.864Z,95556
2022-08-07T20:20:49.261Z,95555
2022-08-07T20:24:14.613Z,95551
2022-08-07T20:27:43.009Z,95557
2022-08-07T20:31:05.409Z,95554
2022-08-07T20:34:49.089Z,95559
2022-08-07T20:37:59.363Z,95563
2022-08-07T20:41:21.684Z,95560
2022-08-07T20:44:49.438Z,95561
2022-08-07T20:48:12.356Z,95566
2022-08-07T20:51:40.499Z,95563
2022-08-07T20:55:03.029Z,95568
2022-08-07T20:58:28.603Z,95570
2022-08-07T21:01:54.998Z,95567
2022-08-07T21:05:19.074Z,95569
2022-08-07T21:08:44.486Z,95568
2022-08-07T21:12:15.056Z,95566
2022-08-07T21:15:48.324Z,95569
2022-08-07T21:19:00.634Z,95566
2022-08-07T21:22:28.561Z,95559
2022-08-07T21:25:56.651Z,95560
2022-08-07T21:29:16.726Z,95561
2022-08-07T21:32:48.145Z,95567
2022-08-07T21:36:11.766Z,95571
2022-08-07T21:39:44.531Z,95560
2022-08-07T21:42:58.213Z,95565
2022-08-07T21:46:24.372Z,95560
2022-08-07T21:50:00.619Z,95561
2022-08-07T21:53:14.240Z,95566
2022-08-07T21:56:47.867Z,95573
2022-08-07T22:00:06.077Z,95567
2022-08-07T22:03:31.269Z,95569
2022-08-07T22:06:55.762Z,95572
2022-08-07T22:10:21.078Z,95572
2022-08-07T22:13:50.838Z,95578
2022-08-07T22:17:11.844Z,95578
2022-08-07T22:20:37.188Z,95574
2022-08-07T22:24:02.629Z,95566
2022-08-07T22:27:34.285Z,95565
2022-08-07T22:30:53.396Z,95563
2022-08-07T22:34:18.682Z,95560
2022-08-07T22:38:01.582Z,95564
2022-08-07T22:41:09.404Z,95561
2022-08-07T22:44:34.740Z,95558
2022-08-07T22:48:00.178Z,95554
2022-08-07T22:51:25.433Z,95560
2022-08-07T22:54:50.738Z,95564
2022-08-07T22:58:16.047Z,95565
2022-08-07T23:01:41.870Z,95560
2022-08-07T23:06:05.285Z,95566
2022-08-07T23:08:32.077Z,95560
2022-08-07T23:11:59.004Z,95559
2022-08-07T23:16:05.270Z,95562
2022-08-07T23:18:48.069Z,95554
2022-08-07T23:22:13.395Z,95555
2022-08-07T23:25:38.851Z,95556
2022-08-07T23:29:04.005Z,95555
2022-08-07T23:32:49.903Z,95554
2022-08-07T23:35:54.599Z,95556
2022-08-07T23:39:21.913Z,95553
2022-08-07T23:42:45.260Z,95556
2022-08-07T23:46:11.092Z,95553
2022-08-07T23:49:41.996Z,95560
2022-08-07T23:53:05.350Z,95557
2022-08-07T23:56:26.789Z,95554
